Airport Name : Wright Patterson AFB

Other Name : Wright Patterson

ICAO : KFFO

IATA : FFO

FAA : FFO

Latitude : 39.826111

Longitude : -84.048332

Country : United States

Local Date and Time : 1/22/2018 10:47:00 AM

 

TAF (Terminal Aerodrome Forecast)

TAF AMD KFFO 221445Z 2214/2317 17009KT 9999 FEW020 SCT110 OVC200 520102 QNH2980INS TEMPO 2216/2219 18015G25KT BECMG 2218/2219 18012KT 8000 -SHRA SCT007 BKN015 OVC030 610902 520102 QNH2967INS TEMPO 2219/2222 18015G30KT 6000 -SHRA 510003 BECMG 2302/2303 27010G15KT 9999 NSW BKN020 OVC035 510102 QNH2957INS BECMG 2307/2308 27010G15KT 9000 -SHRA SCT015 BKN020 OVC035 610456 510102 QNH2955INS TX16/2218Z TN06/2311Z

 

METAR (METeorological Aerodrome Report)

KFFO 221456Z AUTO 16013KT 10SM BKN110 13/05 A2986 RMK AO2 SLP115 T01260046 55009

KFFO 221356Z 17010KT 10SM FEW100 SCT250 11/05 A2987 RMK AO2A SLP119 T01090050

KFFO 221256Z 16009KT 10SM FEW100 SCT250 10/05 A2986 RMK AO2A SLP116 T01030051

KFFO 221156Z 00000KT 10SM BKN100 10/05 A2988 RMK AO2A SLP123 60000 70001 T00990053 10102 20086 57019